sensor_id;sensor_type;location;lat;lon;timestamp;temperature;humidity
35796;DHT22;21916;52.428;13.302;2023-08-06T00:00:21;17.80;99.90
35796;DHT22;21916;52.428;13.302;2023-08-06T00:02:47;17.70;99.90
35796;DHT22;21916;52.428;13.302;2023-08-06T00:05:13;17.80;99.90
35796;DHT22;21916;52.428;13.302;2023-08-06T00:07:39;17.70;99.90
35796;DHT22;21916;52.428;13.302;2023-08-06T00:10:05;17.80;99.90
35796;DHT22;21916;52.428;13.302;2023-08-06T00:12:31;17.80;99.90
35796;DHT22;21916;52.428;13.302;2023-08-06T00:14:57;17.60;99.90
35796;DHT22;21916;52.428;13.302;2023-08-06T00:17:23;17.70;99.90
35796;DHT22;21916;52.428;13.302;2023-08-06T00:19:49;17.60;99.90
35796;DHT22;21916;52.428;13.302;2023-08-06T00:22:15;17.60;99.90
35796;DHT22;21916;52.428;13.302;2023-08-06T00:24:41;17.60;99.90
35796;DHT22;21916;52.428;13.302;2023-08-06T00:27:06;17.70;99.90
35796;DHT22;21916;52.428;13.302;2023-08-06T00:29:34;17.70;99.90
35796;DHT22;21916;52.428;13.302;2023-08-06T00:32:00;17.60;99.90
35796;DHT22;21916;52.428;13.302;2023-08-06T00:34:25;17.70;99.90
35796;DHT22;21916;52.428;13.302;2023-08-06T00:36:51;17.70;99.90
35796;DHT22;21916;52.428;13.302;2023-08-06T00:39:19;17.60;99.90
35796;DHT22;21916;52.428;13.302;2023-08-06T00:41:45;17.60;99.90
35796;DHT22;21916;52.428;13.302;2023-08-06T00:44:11;17.60;99.90
35796;DHT22;21916;52.428;13.302;2023-08-06T00:46:39;17.50;99.90
35796;DHT22;21916;52.428;13.302;2023-08-06T00:49:05;17.50;99.90
35796;DHT22;21916;52.428;13.302;2023-08-06T00:51:32;17.60;99.90
35796;DHT22;21916;52.428;13.302;2023-08-06T00:53:58;17.60;99.90
35796;DHT22;21916;52.428;13.302;2023-08-06T00:56:24;17.50;99.90
35796;DHT22;21916;52.428;13.302;2023-08-06T00:58:51;17.40;99.90
35796;DHT22;21916;52.428;13.302;2023-08-06T01:01:17;17.50;99.90
35796;DHT22;21916;52.428;13.302;2023-08-06T01:03:43;17.40;99.90
35796;DHT22;21916;52.428;13.302;2023-08-06T01:06:09;17.30;99.90
35796;DHT22;21916;52.428;13.302;2023-08-06T01:08:56;17.30;99.90
35796;DHT22;21916;52.428;13.302;2023-08-06T01:14:28;17.30;99.90
35796;DHT22;21916;52.428;13.302;2023-08-06T01:16:58;17.30;99.90
35796;DHT22;21916;52.428;13.302;2023-08-06T01:19:24;17.30;99.90
35796;DHT22;21916;52.428;13.302;2023-08-06T01:21:50;17.30;99.90
35796;DHT22;21916;52.428;13.302;2023-08-06T01:24:16;17.30;99.90
35796;DHT22;21916;52.428;13.302;2023-08-06T01:26:48;17.40;99.90
35796;DHT22;21916;52.428;13.302;2023-08-06T01:29:24;17.40;99.90
35796;DHT22;21916;52.428;13.302;2023-08-06T01:31:51;17.30;99.90
35796;DHT22;21916;52.428;13.302;2023-08-06T01:34:22;17.40;99.90
35796;DHT22;21916;52.428;13.302;2023-08-06T01:36:49;17.40;99.90
35796;DHT22;21916;52.428;13.302;2023-08-06T01:39:15;17.40;99.90
35796;DHT22;21916;52.428;13.302;2023-08-06T01:41:41;17.30;99.90
35796;DHT22;21916;52.428;13.302;2023-08-06T01:44:09;17.40;99.90
35796;DHT22;21916;52.428;13.302;2023-08-06T01:46:35;17.40;99.90
35796;DHT22;21916;52.428;13.302;2023-08-06T01:49:01;17.40;99.90
35796;DHT22;21916;52.428;13.302;2023-08-06T01:51:28;17.40;99.90
35796;DHT22;21916;52.428;13.302;2023-08-06T01:53:54;17.20;99.90
35796;DHT22;21916;52.428;13.302;2023-08-06T01:56:20;17.20;99.90
35796;DHT22;21916;52.428;13.302;2023-08-06T01:58:46;17.30;99.90
35796;DHT22;21916;52.428;13.302;2023-08-06T02:01:12;17.30;99.90
35796;DHT22;21916;52.428;13.302;2023-08-06T02:03:38;17.20;99.90
35796;DHT22;21916;52.428;13.302;2023-08-06T02:06:04;17.00;99.90
35796;DHT22;21916;52.428;13.302;2023-08-06T02:08:30;16.90;99.90
35796;DHT22;21916;52.428;13.302;2023-08-06T02:10:55;17.00;99.90
35796;DHT22;21916;52.428;13.302;2023-08-06T02:13:21;16.90;99.90
35796;DHT22;21916;52.428;13.302;2023-08-06T02:15:47;16.90;99.90
35796;DHT22;21916;52.428;13.302;2023-08-06T02:18:14;16.90;99.90
35796;DHT22;21916;52.428;13.302;2023-08-06T02:20:43;16.90;99.90
35796;DHT22;21916;52.428;13.302;2023-08-06T02:23:09;16.90;99.90
35796;DHT22;21916;52.428;13.302;2023-08-06T02:25:35;16.80;99.90
35796;DHT22;21916;52.428;13.302;2023-08-06T02:28:01;16.80;99.90
35796;DHT22;21916;52.428;13.302;2023-08-06T02:30:27;16.80;99.90
35796;DHT22;21916;52.428;13.302;2023-08-06T02:32:53;16.80;99.90
35796;DHT22;21916;52.428;13.302;2023-08-06T02:35:20;16.80;99.90
35796;DHT22;21916;52.428;13.302;2023-08-06T02:37:46;16.80;99.90
35796;DHT22;21916;52.428;13.302;2023-08-06T02:40:12;16.80;99.90
35796;DHT22;21916;52.428;13.302;2023-08-06T02:42:37;16.80;99.90
35796;DHT22;21916;52.428;13.302;2023-08-06T02:45:04;16.80;99.90
35796;DHT22;21916;52.428;13.302;2023-08-06T02:47:30;16.80;99.90
35796;DHT22;21916;52.428;13.302;2023-08-06T02:49:57;16.70;99.90
35796;DHT22;21916;52.428;13.302;2023-08-06T02:52:23;16.70;99.90
35796;DHT22;21916;52.428;13.302;2023-08-06T02:54:49;16.80;99.90
35796;DHT22;21916;52.428;13.302;2023-08-06T02:57:15;16.70;99.90
35796;DHT22;21916;52.428;13.302;2023-08-06T02:59:42;16.70;99.90
35796;DHT22;21916;52.428;13.302;2023-08-06T03:02:17;16.60;99.90
35796;DHT22;21916;52.428;13.302;2023-08-06T03:05:04;16.70;99.90
35796;DHT22;21916;52.428;13.302;2023-08-06T03:07:38;16.70;99.90
35796;DHT22;21916;52.428;13.302;2023-08-06T03:10:14;16.70;99.90
35796;DHT22;21916;52.428;13.302;2023-08-06T03:12:40;16.60;99.90
35796;DHT22;21916;52.428;13.302;2023-08-06T03:15:07;16.60;99.90
35796;DHT22;21916;52.428;13.302;2023-08-06T03:17:33;16.60;99.90
35796;DHT22;21916;52.428;13.302;2023-08-06T03:19:59;16.80;99.90
35796;DHT22;21916;52.428;13.302;2023-08-06T03:22:26;16.80;99.90
35796;DHT22;21916;52.428;13.302;2023-08-06T03:24:54;16.80;99.90
35796;DHT22;21916;52.428;13.302;2023-08-06T03:27:22;16.80;99.90
35796;DHT22;21916;52.428;13.302;2023-08-06T03:29:50;16.80;99.90
35796;DHT22;21916;52.428;13.302;2023-08-06T03:32:17;16.90;99.90
35796;DHT22;21916;52.428;13.302;2023-08-06T03:34:43;16.90;99.90
35796;DHT22;21916;52.428;13.302;2023-08-06T03:37:11;16.80;99.90
35796;DHT22;21916;52.428;13.302;2023-08-06T03:39:37;16.90;99.90
35796;DHT22;21916;52.428;13.302;2023-08-06T03:42:04;16.80;99.90
35796;DHT22;21916;52.428;13.302;2023-08-06T03:44:30;16.80;99.90
35796;DHT22;21916;52.428;13.302;2023-08-06T03:46:57;16.70;99.90
35796;DHT22;21916;52.428;13.302;2023-08-06T03:49:26;16.70;99.90
35796;DHT22;21916;52.428;13.302;2023-08-06T03:51:52;16.60;99.90
35796;DHT22;21916;52.428;13.302;2023-08-06T03:54:19;16.60;99.90
35796;DHT22;21916;52.428;13.302;2023-08-06T03:56:45;16.50;99.90
35796;DHT22;21916;52.428;13.302;2023-08-06T03:59:12;16.50;99.90
35796;DHT22;21916;52.428;13.302;2023-08-06T04:01:39;16.40;99.90
35796;DHT22;21916;52.428;13.302;2023-08-06T04:04:07;16.40;99.90
35796;DHT22;21916;52.428;13.302;2023-08-06T04:06:32;16.30;99.90
35796;DHT22;21916;52.428;13.302;2023-08-06T04:08:59;16.40;99.90
35796;DHT22;21916;52.428;13.302;2023-08-06T04:11:25;16.40;99.90
35796;DHT22;21916;52.428;13.302;2023-08-06T04:13:51;16.40;99.90
35796;DHT22;21916;52.428;13.302;2023-08-06T04:16:17;16.40;99.90
35796;DHT22;21916;52.428;13.302;2023-08-06T04:18:43;16.30;99.90
35796;DHT22;21916;52.428;13.302;2023-08-06T04:21:09;16.30;99.90
35796;DHT22;21916;52.428;13.302;2023-08-06T04:23:35;16.30;99.90
35796;DHT22;21916;52.428;13.302;2023-08-06T04:26:04;16.40;99.90
35796;DHT22;21916;52.428;13.302;2023-08-06T04:28:33;16.30;99.90
35796;DHT22;21916;52.428;13.302;2023-08-06T04:30:59;16.30;99.90
35796;DHT22;21916;52.428;13.302;2023-08-06T04:33:26;16.40;99.90
35796;DHT22;21916;52.428;13.302;2023-08-06T04:35:55;16.30;99.90
35796;DHT22;21916;52.428;13.302;2023-08-06T04:38:24;16.40;99.90
35796;DHT22;21916;52.428;13.302;2023-08-06T04:40:51;16.40;99.90
35796;DHT22;21916;52.428;13.302;2023-08-06T04:43:17;16.40;99.90
35796;DHT22;21916;52.428;13.302;2023-08-06T04:45:51;16.30;99.90
35796;DHT22;21916;52.428;13.302;2023-08-06T04:48:18;16.30;99.90
35796;DHT22;21916;52.428;13.302;2023-08-06T04:50:45;16.40;99.90
35796;DHT22;21916;52.428;13.302;2023-08-06T04:53:11;16.40;99.90
35796;DHT22;21916;52.428;13.302;2023-08-06T04:55:37;16.40;99.90
35796;DHT22;21916;52.428;13.302;2023-08-06T04:58:03;16.50;99.90
35796;DHT22;21916;52.428;13.302;2023-08-06T05:00:31;16.50;99.90
35796;DHT22;21916;52.428;13.302;2023-08-06T05:02:59;16.50;99.90
35796;DHT22;21916;52.428;13.302;2023-08-06T05:05:25;16.50;99.90
35796;DHT22;21916;52.428;13.302;2023-08-06T05:07:51;16.50;99.90
35796;DHT22;21916;52.428;13.302;2023-08-06T05:10:17;16.50;99.90
35796;DHT22;21916;52.428;13.302;2023-08-06T05:12:43;16.40;99.90
35796;DHT22;21916;52.428;13.302;2023-08-06T05:15:09;16.50;99.90
35796;DHT22;21916;52.428;13.302;2023-08-06T05:17:35;16.50;99.90
35796;DHT22;21916;52.428;13.302;2023-08-06T05:20:01;16.50;99.90
35796;DHT22;21916;52.428;13.302;2023-08-06T05:22:27;16.60;99.90
35796;DHT22;21916;52.428;13.302;2023-08-06T05:24:53;16.70;99.90
35796;DHT22;21916;52.428;13.302;2023-08-06T05:27:18;16.70;99.90
35796;DHT22;21916;52.428;13.302;2023-08-06T05:29:45;16.70;99.90
35796;DHT22;21916;52.428;13.302;2023-08-06T05:32:12;16.60;99.90
35796;DHT22;21916;52.428;13.302;2023-08-06T05:34:38;16.50;99.90
35796;DHT22;21916;52.428;13.302;2023-08-06T05:37:05;16.60;99.90
35796;DHT22;21916;52.428;13.302;2023-08-06T05:39:31;16.60;99.90
35796;DHT22;21916;52.428;13.302;2023-08-06T05:41:57;16.60;99.90
35796;DHT22;21916;52.428;13.302;2023-08-06T05:44:23;16.60;99.90
35796;DHT22;21916;52.428;13.302;2023-08-06T05:46:50;16.70;99.90
35796;DHT22;21916;52.428;13.302;2023-08-06T05:49:16;16.70;99.90
35796;DHT22;21916;52.428;13.302;2023-08-06T05:51:41;16.80;99.90
35796;DHT22;21916;52.428;13.302;2023-08-06T05:54:07;16.80;99.90
35796;DHT22;21916;52.428;13.302;2023-08-06T05:56:33;16.90;99.90
35796;DHT22;21916;52.428;13.302;2023-08-06T05:58:59;17.00;99.90
35796;DHT22;21916;52.428;13.302;2023-08-06T06:01:25;16.90;99.90
35796;DHT22;21916;52.428;13.302;2023-08-06T06:03:51;17.00;99.90
35796;DHT22;21916;52.428;13.302;2023-08-06T06:06:17;17.10;99.90
35796;DHT22;21916;52.428;13.302;2023-08-06T06:08:44;17.20;99.90
35796;DHT22;21916;52.428;13.302;2023-08-06T06:11:10;17.30;99.90
35796;DHT22;21916;52.428;13.302;2023-08-06T06:13:36;17.40;99.90
35796;DHT22;21916;52.428;13.302;2023-08-06T06:16:02;17.50;99.90
35796;DHT22;21916;52.428;13.302;2023-08-06T06:18:28;17.60;99.90
35796;DHT22;21916;52.428;13.302;2023-08-06T06:20:54;17.70;99.90
35796;DHT22;21916;52.428;13.302;2023-08-06T06:23:20;17.70;99.90
35796;DHT22;21916;52.428;13.302;2023-08-06T06:25:49;17.70;99.90
35796;DHT22;21916;52.428;13.302;2023-08-06T06:28:19;17.70;99.90
35796;DHT22;21916;52.428;13.302;2023-08-06T06:30:45;17.70;99.90
35796;DHT22;21916;52.428;13.302;2023-08-06T06:33:11;17.90;99.90
35796;DHT22;21916;52.428;13.302;2023-08-06T06:35:37;18.00;99.90
35796;DHT22;21916;52.428;13.302;2023-08-06T06:38:03;18.10;99.90
35796;DHT22;21916;52.428;13.302;2023-08-06T06:40:28;18.00;99.90
35796;DHT22;21916;52.428;13.302;2023-08-06T06:42:54;18.10;99.90
35796;DHT22;21916;52.428;13.302;2023-08-06T06:45:20;18.00;99.90
35796;DHT22;21916;52.428;13.302;2023-08-06T06:47:46;17.90;99.90
35796;DHT22;21916;52.428;13.302;2023-08-06T06:50:12;17.80;99.90
35796;DHT22;21916;52.428;13.302;2023-08-06T06:52:38;17.60;99.90
35796;DHT22;21916;52.428;13.302;2023-08-06T06:55:05;17.60;99.90
35796;DHT22;21916;52.428;13.302;2023-08-06T06:57:31;17.60;99.90
35796;DHT22;21916;52.428;13.302;2023-08-06T06:59:57;17.50;99.90
35796;DHT22;21916;52.428;13.302;2023-08-06T07:02:23;17.50;99.90
35796;DHT22;21916;52.428;13.302;2023-08-06T07:04:50;17.40;99.90
35796;DHT22;21916;52.428;13.302;2023-08-06T07:07:16;17.50;99.90
35796;DHT22;21916;52.428;13.302;2023-08-06T07:09:42;17.60;99.90
35796;DHT22;21916;52.428;13.302;2023-08-06T07:12:08;17.50;99.90
35796;DHT22;21916;52.428;13.302;2023-08-06T07:14:35;17.50;99.90
35796;DHT22;21916;52.428;13.302;2023-08-06T07:17:01;17.50;99.90
35796;DHT22;21916;52.428;13.302;2023-08-06T07:19:28;17.60;99.90
35796;DHT22;21916;52.428;13.302;2023-08-06T07:21:54;17.70;99.90
35796;DHT22;21916;52.428;13.302;2023-08-06T07:24:21;17.60;99.90
35796;DHT22;21916;52.428;13.302;2023-08-06T07:26:47;17.70;99.90
35796;DHT22;21916;52.428;13.302;2023-08-06T07:29:14;17.90;99.90
35796;DHT22;21916;52.428;13.302;2023-08-06T07:31:45;18.10;99.90
35796;DHT22;21916;52.428;13.302;2023-08-06T07:34:11;18.30;99.90
35796;DHT22;21916;52.428;13.302;2023-08-06T07:36:38;18.40;99.90
35796;DHT22;21916;52.428;13.302;2023-08-06T07:39:04;18.30;99.90
35796;DHT22;21916;52.428;13.302;2023-08-06T07:41:32;18.50;99.90
35796;DHT22;21916;52.428;13.302;2023-08-06T07:43:57;18.60;99.90
35796;DHT22;21916;52.428;13.302;2023-08-06T07:46:23;18.70;99.90
35796;DHT22;21916;52.428;13.302;2023-08-06T07:48:49;18.80;99.90
35796;DHT22;21916;52.428;13.302;2023-08-06T07:51:15;18.90;99.90
35796;DHT22;21916;52.428;13.302;2023-08-06T07:53:41;18.80;99.90
35796;DHT22;21916;52.428;13.302;2023-08-06T07:56:07;19.00;99.90
35796;DHT22;21916;52.428;13.302;2023-08-06T07:58:33;19.20;99.90
35796;DHT22;21916;52.428;13.302;2023-08-06T08:00:59;19.10;99.90
35796;DHT22;21916;52.428;13.302;2023-08-06T08:03:25;19.20;99.90
35796;DHT22;21916;52.428;13.302;2023-08-06T08:05:55;19.10;99.90
35796;DHT22;21916;52.428;13.302;2023-08-06T08:08:24;19.30;99.90
35796;DHT22;21916;52.428;13.302;2023-08-06T08:10:50;19.40;99.90
35796;DHT22;21916;52.428;13.302;2023-08-06T08:13:16;19.40;99.90
35796;DHT22;21916;52.428;13.302;2023-08-06T08:15:42;19.50;99.90
35796;DHT22;21916;52.428;13.302;2023-08-06T08:18:08;19.60;99.90
35796;DHT22;21916;52.428;13.302;2023-08-06T08:20:34;19.50;99.90
35796;DHT22;21916;52.428;13.302;2023-08-06T08:23:01;19.30;99.90
35796;DHT22;21916;52.428;13.302;2023-08-06T08:25:28;19.30;99.90
35796;DHT22;21916;52.428;13.302;2023-08-06T08:27:54;19.20;99.90
35796;DHT22;21916;52.428;13.302;2023-08-06T08:30:21;19.10;99.90
35796;DHT22;21916;52.428;13.302;2023-08-06T08:32:48;19.10;99.90
35796;DHT22;21916;52.428;13.302;2023-08-06T08:35:17;19.00;99.90
35796;DHT22;21916;52.428;13.302;2023-08-06T08:37:43;19.10;99.90
35796;DHT22;21916;52.428;13.302;2023-08-06T08:40:09;19.00;99.90
35796;DHT22;21916;52.428;13.302;2023-08-06T08:42:37;18.90;99.90
35796;DHT22;21916;52.428;13.302;2023-08-06T08:45:05;18.80;99.90
35796;DHT22;21916;52.428;13.302;2023-08-06T08:47:34;18.90;99.90
35796;DHT22;21916;52.428;13.302;2023-08-06T08:50:00;19.00;99.90
35796;DHT22;21916;52.428;13.302;2023-08-06T08:52:28;18.80;99.90
35796;DHT22;21916;52.428;13.302;2023-08-06T08:54:56;18.80;99.90
35796;DHT22;21916;52.428;13.302;2023-08-06T08:57:22;18.90;99.90
35796;DHT22;21916;52.428;13.302;2023-08-06T08:59:48;18.90;99.90
35796;DHT22;21916;52.428;13.302;2023-08-06T09:02:16;19.00;99.90
35796;DHT22;21916;52.428;13.302;2023-08-06T09:04:42;19.00;99.90
35796;DHT22;21916;52.428;13.302;2023-08-06T09:07:11;19.20;99.90
35796;DHT22;21916;52.428;13.302;2023-08-06T09:09:39;19.10;99.90
35796;DHT22;21916;52.428;13.302;2023-08-06T09:12:15;19.30;99.90
35796;DHT22;21916;52.428;13.302;2023-08-06T09:14:41;19.40;99.90
35796;DHT22;21916;52.428;13.302;2023-08-06T09:17:09;19.40;99.90
35796;DHT22;21916;52.428;13.302;2023-08-06T09:19:36;19.10;99.90
35796;DHT22;21916;52.428;13.302;2023-08-06T09:22:03;18.90;99.90
35796;DHT22;21916;52.428;13.302;2023-08-06T09:24:29;18.80;99.90
35796;DHT22;21916;52.428;13.302;2023-08-06T09:26:54;18.60;99.90
35796;DHT22;21916;52.428;13.302;2023-08-06T09:29:21;18.70;99.90
35796;DHT22;21916;52.428;13.302;2023-08-06T09:31:50;18.60;99.90
35796;DHT22;21916;52.428;13.302;2023-08-06T09:34:22;18.60;99.90
35796;DHT22;21916;52.428;13.302;2023-08-06T09:36:50;18.40;99.90
35796;DHT22;21916;52.428;13.302;2023-08-06T09:39:31;18.40;99.90
35796;DHT22;21916;52.428;13.302;2023-08-06T09:41:59;18.50;99.90
35796;DHT22;21916;52.428;13.302;2023-08-06T09:44:28;18.50;99.90
35796;DHT22;21916;52.428;13.302;2023-08-06T09:47:03;18.50;99.90
35796;DHT22;21916;52.428;13.302;2023-08-06T09:51:59;18.60;99.90
35796;DHT22;21916;52.428;13.302;2023-08-06T09:54:28;18.70;99.90
35796;DHT22;21916;52.428;13.302;2023-08-06T09:56:56;18.50;99.90
35796;DHT22;21916;52.428;13.302;2023-08-06T09:59:26;18.50;99.90
35796;DHT22;21916;52.428;13.302;2023-08-06T10:01:55;18.50;99.90
35796;DHT22;21916;52.428;13.302;2023-08-06T10:04:22;18.60;99.90
35796;DHT22;21916;52.428;13.302;2023-08-06T10:06:48;18.70;99.90
35796;DHT22;21916;52.428;13.302;2023-08-06T10:09:15;18.90;99.90
35796;DHT22;21916;52.428;13.302;2023-08-06T10:11:42;18.80;99.90
35796;DHT22;21916;52.428;13.302;2023-08-06T10:14:12;18.90;99.90
35796;DHT22;21916;52.428;13.302;2023-08-06T10:16:40;19.00;99.90
35796;DHT22;21916;52.428;13.302;2023-08-06T10:19:09;18.70;99.90
35796;DHT22;21916;52.428;13.302;2023-08-06T10:21:38;18.60;99.90
35796;DHT22;21916;52.428;13.302;2023-08-06T10:24:07;18.50;99.90
35796;DHT22;21916;52.428;13.302;2023-08-06T10:26:35;18.40;99.90
35796;DHT22;21916;52.428;13.302;2023-08-06T10:29:35;18.40;99.90
35796;DHT22;21916;52.428;13.302;2023-08-06T10:32:02;18.40;99.90
35796;DHT22;21916;52.428;13.302;2023-08-06T10:35:01;18.40;99.90
35796;DHT22;21916;52.428;13.302;2023-08-06T10:37:35;18.50;99.90
35796;DHT22;21916;52.428;13.302;2023-08-06T10:40:02;18.60;99.90
35796;DHT22;21916;52.428;13.302;2023-08-06T10:42:31;18.60;99.90
35796;DHT22;21916;52.428;13.302;2023-08-06T10:45:15;18.60;99.90
35796;DHT22;21916;52.428;13.302;2023-08-06T10:47:42;18.60;99.90
35796;DHT22;21916;52.428;13.302;2023-08-06T10:50:11;18.60;99.90
35796;DHT22;21916;52.428;13.302;2023-08-06T10:52:37;18.40;99.90
35796;DHT22;21916;52.428;13.302;2023-08-06T10:55:03;18.30;99.90
35796;DHT22;21916;52.428;13.302;2023-08-06T10:57:29;18.30;99.90
35796;DHT22;21916;52.428;13.302;2023-08-06T10:59:55;18.40;99.90
35796;DHT22;21916;52.428;13.302;2023-08-06T11:02:21;18.40;99.90
35796;DHT22;21916;52.428;13.302;2023-08-06T11:04:48;18.40;99.90
35796;DHT22;21916;52.428;13.302;2023-08-06T11:07:14;18.40;99.90
35796;DHT22;21916;52.428;13.302;2023-08-06T11:09:40;18.40;99.90
35796;DHT22;21916;52.428;13.302;2023-08-06T11:12:12;18.50;99.90
35796;DHT22;21916;52.428;13.302;2023-08-06T11:14:50;18.50;99.90
35796;DHT22;21916;52.428;13.302;2023-08-06T11:17:16;18.50;99.90
35796;DHT22;21916;52.428;13.302;2023-08-06T11:19:42;18.50;99.90
35796;DHT22;21916;52.428;13.302;2023-08-06T11:22:10;18.40;99.90
35796;DHT22;21916;52.428;13.302;2023-08-06T11:24:37;18.30;99.90
35796;DHT22;21916;52.428;13.302;2023-08-06T11:27:11;18.30;99.90
35796;DHT22;21916;52.428;13.302;2023-08-06T11:29:39;18.40;99.90
35796;DHT22;21916;52.428;13.302;2023-08-06T11:32:05;18.50;99.90
35796;DHT22;21916;52.428;13.302;2023-08-06T11:34:31;18.60;99.90
35796;DHT22;21916;52.428;13.302;2023-08-06T11:36:57;18.60;99.90
35796;DHT22;21916;52.428;13.302;2023-08-06T11:39:24;18.60;99.90
35796;DHT22;21916;52.428;13.302;2023-08-06T11:41:50;18.50;99.90
35796;DHT22;21916;52.428;13.302;2023-08-06T11:44:19;18.50;99.90
35796;DHT22;21916;52.428;13.302;2023-08-06T11:46:55;18.50;99.90
35796;DHT22;21916;52.428;13.302;2023-08-06T11:49:46;18.50;99.90
35796;DHT22;21916;52.428;13.302;2023-08-06T11:52:20;18.40;99.90
35796;DHT22;21916;52.428;13.302;2023-08-06T11:54:47;18.50;99.90
35796;DHT22;21916;52.428;13.302;2023-08-06T11:57:14;18.60;99.90
35796;DHT22;21916;52.428;13.302;2023-08-06T11:59:41;18.80;99.90
35796;DHT22;21916;52.428;13.302;2023-08-06T12:02:09;18.90;99.90
35796;DHT22;21916;52.428;13.302;2023-08-06T12:05:04;18.90;99.90
35796;DHT22;21916;52.428;13.302;2023-08-06T12:07:46;18.90;99.90
35796;DHT22;21916;52.428;13.302;2023-08-06T12:10:14;18.90;99.90
35796;DHT22;21916;52.428;13.302;2023-08-06T12:12:40;18.90;99.90
35796;DHT22;21916;52.428;13.302;2023-08-06T12:15:07;18.80;99.90
35796;DHT22;21916;52.428;13.302;2023-08-06T12:17:33;18.80;99.90
35796;DHT22;21916;52.428;13.302;2023-08-06T12:19:59;18.80;99.90
35796;DHT22;21916;52.428;13.302;2023-08-06T12:22:26;18.70;99.90
35796;DHT22;21916;52.428;13.302;2023-08-06T12:24:51;18.70;99.90
35796;DHT22;21916;52.428;13.302;2023-08-06T12:27:17;18.70;99.90
35796;DHT22;21916;52.428;13.302;2023-08-06T12:29:45;18.80;99.90
35796;DHT22;21916;52.428;13.302;2023-08-06T12:32:11;19.00;99.90
35796;DHT22;21916;52.428;13.302;2023-08-06T12:34:39;19.10;99.90
35796;DHT22;21916;52.428;13.302;2023-08-06T12:37:06;19.20;99.90
35796;DHT22;21916;52.428;13.302;2023-08-06T12:39:35;19.30;99.90
35796;DHT22;21916;52.428;13.302;2023-08-06T12:42:03;19.40;99.90
35796;DHT22;21916;52.428;13.302;2023-08-06T12:44:29;19.40;99.90
35796;DHT22;21916;52.428;13.302;2023-08-06T12:46:55;19.20;99.90
35796;DHT22;21916;52.428;13.302;2023-08-06T12:49:22;19.20;99.90
35796;DHT22;21916;52.428;13.302;2023-08-06T12:51:49;19.00;99.90
35796;DHT22;21916;52.428;13.302;2023-08-06T12:54:17;18.70;99.90
35796;DHT22;21916;52.428;13.302;2023-08-06T12:56:47;18.40;99.90
35796;DHT22;21916;52.428;13.302;2023-08-06T12:59:16;18.30;99.90
35796;DHT22;21916;52.428;13.302;2023-08-06T13:01:43;18.40;99.90
35796;DHT22;21916;52.428;13.302;2023-08-06T13:04:10;18.20;99.90
35796;DHT22;21916;52.428;13.302;2023-08-06T13:06:37;17.90;99.90
35796;DHT22;21916;52.428;13.302;2023-08-06T13:09:03;17.40;99.90
35796;DHT22;21916;52.428;13.302;2023-08-06T13:11:32;17.20;99.90
35796;DHT22;21916;52.428;13.302;2023-08-06T13:14:12;17.00;99.90
35796;DHT22;21916;52.428;13.302;2023-08-06T13:16:40;16.80;99.90
35796;DHT22;21916;52.428;13.302;2023-08-06T13:19:06;16.60;99.90
35796;DHT22;21916;52.428;13.302;2023-08-06T13:22:00;16.60;99.90
35796;DHT22;21916;52.428;13.302;2023-08-06T13:24:28;16.50;99.90
35796;DHT22;21916;52.428;13.302;2023-08-06T13:26:54;16.40;99.90
35796;DHT22;21916;52.428;13.302;2023-08-06T13:29:20;16.40;99.90
35796;DHT22;21916;52.428;13.302;2023-08-06T13:31:46;16.40;99.90
35796;DHT22;21916;52.428;13.302;2023-08-06T13:34:12;16.40;99.90
35796;DHT22;21916;52.428;13.302;2023-08-06T13:36:38;16.40;99.90
35796;DHT22;21916;52.428;13.302;2023-08-06T13:39:04;16.50;99.90
35796;DHT22;21916;52.428;13.302;2023-08-06T13:41:31;16.50;99.90
35796;DHT22;21916;52.428;13.302;2023-08-06T13:43:57;16.60;99.90
35796;DHT22;21916;52.428;13.302;2023-08-06T13:46:23;16.70;99.90
35796;DHT22;21916;52.428;13.302;2023-08-06T13:48:48;16.90;99.90
35796;DHT22;21916;52.428;13.302;2023-08-06T13:51:18;16.90;99.90
35796;DHT22;21916;52.428;13.302;2023-08-06T13:53:44;17.00;99.90
35796;DHT22;21916;52.428;13.302;2023-08-06T13:56:10;17.00;99.90
35796;DHT22;21916;52.428;13.302;2023-08-06T13:58:38;16.90;99.90
35796;DHT22;21916;52.428;13.302;2023-08-06T14:01:04;17.10;99.90
35796;DHT22;21916;52.428;13.302;2023-08-06T14:03:30;17.30;99.90
35796;DHT22;21916;52.428;13.302;2023-08-06T14:05:56;17.40;99.90
35796;DHT22;21916;52.428;13.302;2023-08-06T14:08:23;17.40;99.90
35796;DHT22;21916;52.428;13.302;2023-08-06T14:10:50;17.40;99.90
35796;DHT22;21916;52.428;13.302;2023-08-06T14:13:16;17.50;99.90
35796;DHT22;21916;52.428;13.302;2023-08-06T14:15:42;17.60;99.90
35796;DHT22;21916;52.428;13.302;2023-08-06T14:18:13;17.70;99.90
35796;DHT22;21916;52.428;13.302;2023-08-06T14:20:40;17.80;99.90
35796;DHT22;21916;52.428;13.302;2023-08-06T14:23:06;17.90;99.90
35796;DHT22;21916;52.428;13.302;2023-08-06T14:25:32;17.90;99.90
35796;DHT22;21916;52.428;13.302;2023-08-06T14:27:58;18.00;99.90
35796;DHT22;21916;52.428;13.302;2023-08-06T14:30:24;18.20;99.90
35796;DHT22;21916;52.428;13.302;2023-08-06T14:32:50;18.30;99.90
35796;DHT22;21916;52.428;13.302;2023-08-06T14:35:16;18.50;99.90
35796;DHT22;21916;52.428;13.302;2023-08-06T14:37:42;18.50;99.90
35796;DHT22;21916;52.428;13.302;2023-08-06T14:40:08;18.50;99.90
35796;DHT22;21916;52.428;13.302;2023-08-06T14:42:34;18.50;99.90
35796;DHT22;21916;52.428;13.302;2023-08-06T14:45:00;18.10;99.90
35796;DHT22;21916;52.428;13.302;2023-08-06T14:47:26;17.90;99.90
35796;DHT22;21916;52.428;13.302;2023-08-06T14:49:52;17.80;99.90
35796;DHT22;21916;52.428;13.302;2023-08-06T14:52:18;17.80;99.90
35796;DHT22;21916;52.428;13.302;2023-08-06T14:54:44;17.70;99.90
35796;DHT22;21916;52.428;13.302;2023-08-06T14:57:10;17.70;99.90
35796;DHT22;21916;52.428;13.302;2023-08-06T14:59:36;17.70;99.90
35796;DHT22;21916;52.428;13.302;2023-08-06T15:02:02;17.80;99.90
35796;DHT22;21916;52.428;13.302;2023-08-06T15:04:29;17.90;99.90
35796;DHT22;21916;52.428;13.302;2023-08-06T15:06:55;18.00;99.90
35796;DHT22;21916;52.428;13.302;2023-08-06T15:09:21;18.00;99.90
35796;DHT22;21916;52.428;13.302;2023-08-06T15:11:48;18.10;99.90
35796;DHT22;21916;52.428;13.302;2023-08-06T15:14:14;18.20;99.90
35796;DHT22;21916;52.428;13.302;2023-08-06T15:16:40;18.30;99.90
35796;DHT22;21916;52.428;13.302;2023-08-06T15:19:06;18.40;99.90
35796;DHT22;21916;52.428;13.302;2023-08-06T15:21:32;18.50;99.90